Time,TemperatureF,DewpointF,PressureIn,WindDirection,WindDirectionDegrees,WindSpeedMPH,WindSpeedGustMPH,Humidity,HourlyPrecipIn,Conditions,Clouds,dailyrainin,SoftwareType,DateUTC
2013-08-24 00:07:00,57.0,56.0,30.20,SSW,195,0.0,0.0,97,0.00,,,0.00,weatherlink.com 1.10,2013-08-24 04:07:00,
2013-08-24 00:22:00,56.7,56.0,30.20,SSW,195,0.0,0.0,97,0.00,,,0.00,weatherlink.com 1.10,2013-08-24 04:22:00,
2013-08-24 00:37:00,56.2,55.0,30.20,SSW,195,0.0,0.0,97,0.00,,,0.00,weatherlink.com 1.10,2013-08-24 04:37:00,
2013-08-24 00:52:00,56.1,55.0,30.21,SSW,195,0.0,0.0,97,0.00,,,0.00,weatherlink.com 1.10,2013-08-24 04:52:00,
2013-08-24 01:08:00,55.8,55.0,30.21,SSW,196,0.0,0.0,98,0.00,,,0.00,weatherlink.com 1.10,2013-08-24 05:08:00,
2013-08-24 01:23:00,55.5,55.0,30.21,SSW,197,0.0,0.0,98,0.00,,,0.00,weatherlink.com 1.10,2013-08-24 05:23:00,
2013-08-24 01:38:00,55.3,55.0,30.21,SSW,195,0.0,0.0,98,0.00,,,0.00,weatherlink.com 1.10,2013-08-24 05:38:00,
2013-08-24 01:53:00,55.0,55.0,30.22,SSW,196,0.0,0.0,98,0.00,,,0.00,weatherlink.com 1.10,2013-08-24 05:53:00,
2013-08-24 02:08:00,54.9,54.0,30.22,SSW,195,0.0,0.0,98,0.00,,,0.00,weatherlink.com 1.10,2013-08-24 06:08:00,
2013-08-24 02:23:00,54.6,54.0,30.22,SSW,195,0.0,0.0,98,0.00,,,0.00,weatherlink.com 1.10,2013-08-24 06:23:00,
2013-08-24 02:38:00,54.7,54.0,30.21,SSW,195,0.0,0.0,98,0.00,,,0.00,weatherlink.com 1.10,2013-08-24 06:38:00,
2013-08-24 02:53:00,54.8,54.0,30.22,SSW,195,0.0,0.0,98,0.00,,,0.00,weatherlink.com 1.10,2013-08-24 06:53:00,
2013-08-24 03:08:00,54.9,54.0,30.22,SSW,195,0.0,0.0,98,0.00,,,0.00,weatherlink.com 1.10,2013-08-24 07:08:00,
2013-08-24 03:23:00,55.2,55.0,30.22,SSW,197,0.0,1.0,98,0.00,,,0.00,weatherlink.com 1.10,2013-08-24 07:23:00,
2013-08-24 03:38:00,55.5,55.0,30.23,WNW,283,0.0,0.0,99,0.00,,,0.00,weatherlink.com 1.10,2013-08-24 07:38:00,
2013-08-24 03:53:00,55.5,55.0,30.24,WNW,283,0.0,0.0,99,0.00,,,0.00,weatherlink.com 1.10,2013-08-24 07:53:00,
2013-08-24 04:08:00,55.4,55.0,30.24,WNW,283,0.0,0.0,99,0.00,,,0.00,weatherlink.com 1.10,2013-08-24 08:08:00,
2013-08-24 04:23:00,55.1,55.0,30.25,WNW,283,0.0,0.0,98,0.00,,,0.00,weatherlink.com 1.10,2013-08-24 08:23:00,
2013-08-24 04:38:00,54.9,54.0,30.25,WNW,283,0.0,0.0,98,0.00,,,0.00,weatherlink.com 1.10,2013-08-24 08:38:00,
2013-08-24 04:53:00,54.5,54.0,30.25,WNW,283,0.0,0.0,98,0.00,,,0.00,weatherlink.com 1.10,2013-08-24 08:53:00,
2013-08-24 05:08:00,54.2,54.0,30.26,WNW,283,0.0,0.0,98,0.00,,,0.00,weatherlink.com 1.10,2013-08-24 09:08:00,
2013-08-24 05:23:00,54.2,54.0,30.26,WNW,283,0.0,0.0,99,0.00,,,0.00,weatherlink.com 1.10,2013-08-24 09:23:00,
2013-08-24 05:38:00,54.2,54.0,30.26,WNW,283,0.0,0.0,99,0.00,,,0.00,weatherlink.com 1.10,2013-08-24 09:38:00,
2013-08-24 05:53:00,54.1,54.0,30.27,WNW,283,0.0,0.0,99,0.00,,,0.00,weatherlink.com 1.10,2013-08-24 09:53:00,
2013-08-24 06:08:00,54.3,54.0,30.27,WNW,283,0.0,0.0,99,0.00,,,0.00,weatherlink.com 1.10,2013-08-24 10:08:00,
2013-08-24 06:23:00,54.4,54.0,30.28,West,281,0.0,0.0,99,0.00,,,0.00,weatherlink.com 1.10,2013-08-24 10:23:00,
2013-08-24 06:38:00,54.3,54.0,30.28,West,281,0.0,0.0,99,0.00,,,0.00,weatherlink.com 1.10,2013-08-24 10:38:00,
2013-08-24 06:53:00,54.1,54.0,30.29,West,281,0.0,0.0,99,0.00,,,0.00,weatherlink.com 1.10,2013-08-24 10:53:00,
2013-08-24 07:08:00,54.1,54.0,30.29,West,281,0.0,0.0,99,0.00,,,0.00,weatherlink.com 1.10,2013-08-24 11:08:00,
2013-08-24 07:23:00,54.2,54.0,30.30,West,281,0.0,0.0,99,0.00,,,0.00,weatherlink.com 1.10,2013-08-24 11:23:00,
2013-08-24 07:38:00,54.5,54.0,30.30,West,281,0.0,0.0,99,0.00,,,0.00,weatherlink.com 1.10,2013-08-24 11:38:00,
2013-08-24 07:53:00,54.8,55.0,30.30,West,281,0.0,0.0,99,0.00,,,0.00,weatherlink.com 1.10,2013-08-24 11:53:00,
2013-08-24 08:08:00,55.2,55.0,30.31,West,281,0.0,0.0,99,0.00,,,0.00,weatherlink.com 1.10,2013-08-24 12:08:00,
2013-08-24 08:23:00,55.9,56.0,30.31,West,281,0.0,0.0,99,0.00,,,0.00,weatherlink.com 1.10,2013-08-24 12:23:00,
2013-08-24 08:38:00,57.6,57.0,30.32,West,281,0.0,0.0,99,0.00,,,0.00,weatherlink.com 1.10,2013-08-24 12:38:00,
2013-08-24 08:53:00,60.0,60.0,30.32,ESE,118,1.0,1.0,99,0.00,,,0.00,weatherlink.com 1.10,2013-08-24 12:53:00,
2013-08-24 09:08:00,62.0,62.0,30.32,West,280,1.0,1.0,99,0.00,,,0.00,weatherlink.com 1.10,2013-08-24 13:08:00,
2013-08-24 09:24:00,64.6,63.0,30.32,NNE,25,1.0,3.0,94,0.00,,,0.00,weatherlink.com 1.10,2013-08-24 13:24:00,
2013-08-24 09:39:00,67.8,63.0,30.33,SE,128,0.0,2.0,85,0.00,,,0.00,weatherlink.com 1.10,2013-08-24 13:39:00,
2013-08-24 09:54:00,69.5,63.0,30.32,SE,143,1.0,3.0,79,0.00,,,0.00,weatherlink.com 1.10,2013-08-24 13:54:00,
2013-08-24 10:09:00,70.3,62.0,30.32,SSE,150,4.0,5.0,76,0.00,,,0.00,weatherlink.com 1.10,2013-08-24 14:09:00,
2013-08-24 10:24:00,71.2,62.0,30.32,SSW,208,1.0,4.0,72,0.00,,,0.00,weatherlink.com 1.10,2013-08-24 14:24:00,
2013-08-24 10:39:00,72.1,61.0,30.32,WSW,249,2.0,4.0,69,0.00,,,0.00,weatherlink.com 1.10,2013-08-24 14:39:00,
2013-08-24 10:54:00,72.9,60.0,30.32,ESE,115,1.0,5.0,65,0.00,,,0.00,weatherlink.com 1.10,2013-08-24 14:54:00,
2013-08-24 11:09:00,73.6,61.0,30.32,SW,221,0.0,5.0,65,0.00,,,0.00,weatherlink.com 1.10,2013-08-24 15:09:00,
2013-08-24 11:24:00,74.9,60.0,30.31,SW,219,1.0,5.0,61,0.00,,,0.00,weatherlink.com 1.10,2013-08-24 15:24:00,
2013-08-24 11:39:00,75.4,60.0,30.31,SW,235,3.0,5.0,60,0.00,,,0.00,weatherlink.com 1.10,2013-08-24 15:39:00,
2013-08-24 11:54:00,76.1,60.0,30.31,WNW,290,2.0,4.0,58,0.00,,,0.00,weatherlink.com 1.10,2013-08-24 15:54:00,
2013-08-24 12:09:00,76.4,60.0,30.31,ESE,105,2.0,5.0,58,0.00,,,0.00,weatherlink.com 1.10,2013-08-24 16:09:00,
2013-08-24 12:24:00,77.6,61.0,30.31,SE,146,0.0,3.0,56,0.00,,,0.00,weatherlink.com 1.10,2013-08-24 16:24:00,
2013-08-24 12:39:00,78.5,61.0,30.31,South,176,2.0,4.0,56,0.00,,,0.00,weatherlink.com 1.10,2013-08-24 16:39:00,
2013-08-24 12:54:00,78.8,60.0,30.31,ENE,69,3.0,5.0,53,0.00,,,0.00,weatherlink.com 1.10,2013-08-24 16:54:00,
2013-08-24 13:09:00,79.3,58.0,30.30,SE,128,2.0,6.0,49,0.00,,,0.00,weatherlink.com 1.10,2013-08-24 17:09:00,
2013-08-24 13:24:00,79.2,59.0,30.30,ENE,76,0.0,7.0,50,0.00,,,0.00,weatherlink.com 1.10,2013-08-24 17:24:00,
2013-08-24 13:39:00,79.4,58.0,30.30,SW,233,2.0,4.0,48,0.00,,,0.00,weatherlink.com 1.10,2013-08-24 17:39:00,
2013-08-24 13:54:00,79.9,60.0,30.30,SSW,195,2.0,4.0,51,0.00,,,0.00,weatherlink.com 1.10,2013-08-24 17:54:00,
2013-08-24 14:09:00,80.0,60.0,30.30,ESE,110,1.0,5.0,50,0.00,,,0.00,weatherlink.com 1.10,2013-08-24 18:09:00,
2013-08-24 14:24:00,80.8,62.0,30.29,WNW,302,0.0,3.0,53,0.00,,,0.00,weatherlink.com 1.10,2013-08-24 18:24:00,
2013-08-24 14:39:00,80.4,62.0,30.29,North,359,2.0,3.0,54,0.00,,,0.00,weatherlink.com 1.10,2013-08-24 18:39:00,
2013-08-24 14:54:00,80.6,59.0,30.29,ESE,105,2.0,5.0,48,0.00,,,0.00,weatherlink.com 1.10,2013-08-24 18:54:00,
2013-08-24 15:09:00,81.3,59.0,30.29,ENE,65,1.0,4.0,47,0.00,,,0.00,weatherlink.com 1.10,2013-08-24 19:09:00,
2013-08-24 15:24:00,81.2,61.0,30.28,SSW,210,3.0,3.0,50,0.00,,,0.00,weatherlink.com 1.10,2013-08-24 19:24:00,
2013-08-24 15:39:00,81.3,58.0,30.28,ESE,116,0.0,4.0,45,0.00,,,0.00,weatherlink.com 1.10,2013-08-24 19:39:00,
2013-08-24 15:54:00,81.6,59.0,30.28,WNW,285,1.0,3.0,47,0.00,,,0.00,weatherlink.com 1.10,2013-08-24 19:54:00,
2013-08-24 16:09:00,82.3,59.0,30.27,SSW,207,2.0,3.0,45,0.00,,,0.00,weatherlink.com 1.10,2013-08-24 20:09:00,
2013-08-24 16:25:00,82.4,59.0,30.27,SSW,211,1.0,3.0,45,0.00,,,0.00,weatherlink.com 1.10,2013-08-24 20:25:00,
2013-08-24 16:40:00,81.7,58.0,30.27,NNE,16,1.0,3.0,45,0.00,,,0.00,weatherlink.com 1.10,2013-08-24 20:40:00,
2013-08-24 16:55:00,81.4,57.0,30.27,West,266,0.0,3.0,43,0.00,,,0.00,weatherlink.com 1.10,2013-08-24 20:55:00,
2013-08-24 17:10:00,81.7,58.0,30.27,SE,135,2.0,2.0,45,0.00,,,0.00,weatherlink.com 1.10,2013-08-24 21:10:00,
2013-08-24 17:25:00,80.9,58.0,30.26,NNW,328,1.0,3.0,45,0.00,,,0.00,weatherlink.com 1.10,2013-08-24 21:25:00,
2013-08-24 17:40:00,79.6,59.0,30.26,SW,225,1.0,3.0,50,0.00,,,0.00,weatherlink.com 1.10,2013-08-24 21:40:00,
2013-08-24 17:55:00,78.9,60.0,30.26,SE,137,0.0,3.0,52,0.00,,,0.00,weatherlink.com 1.10,2013-08-24 21:55:00,
2013-08-24 18:10:00,77.9,59.0,30.25,South,177,0.0,2.0,52,0.00,,,0.00,weatherlink.com 1.10,2013-08-24 22:10:00,
2013-08-24 18:25:00,77.1,60.0,30.25,South,173,0.0,0.0,56,0.00,,,0.00,weatherlink.com 1.10,2013-08-24 22:25:00,
2013-08-24 18:40:00,76.8,58.0,30.26,SE,124,0.0,2.0,52,0.00,,,0.00,weatherlink.com 1.10,2013-08-24 22:40:00,
2013-08-24 18:55:00,75.7,62.0,30.26,SE,124,0.0,1.0,62,0.00,,,0.00,weatherlink.com 1.10,2013-08-24 22:55:00,
2013-08-24 19:10:00,74.2,61.0,30.25,SE,124,0.0,0.0,63,0.00,,,0.00,weatherlink.com 1.10,2013-08-24 23:10:00,
2013-08-24 19:25:00,72.4,62.0,30.25,SE,124,0.0,0.0,70,0.00,,,0.00,weatherlink.com 1.10,2013-08-24 23:25:00,
2013-08-24 19:40:00,71.1,64.0,30.26,SE,124,0.0,0.0,78,0.00,,,0.00,weatherlink.com 1.10,2013-08-24 23:40:00,
2013-08-24 19:55:00,69.9,65.0,30.25,SE,124,0.0,0.0,83,0.00,,,0.00,weatherlink.com 1.10,2013-08-24 23:55:00,
2013-08-24 20:10:00,69.0,64.0,30.26,SE,124,0.0,0.0,85,0.00,,,0.00,weatherlink.com 1.10,2013-08-25 00:10:00,
2013-08-24 20:25:00,67.7,64.0,30.26,SE,124,0.0,0.0,87,0.00,,,0.00,weatherlink.com 1.10,2013-08-25 00:25:00,
2013-08-24 20:40:00,66.7,63.0,30.26,SE,124,0.0,0.0,89,0.00,,,0.00,weatherlink.com 1.10,2013-08-25 00:40:00,
2013-08-24 20:55:00,65.5,62.0,30.26,SE,124,0.0,0.0,89,0.00,,,0.00,weatherlink.com 1.10,2013-08-25 00:55:00,
2013-08-24 21:10:00,64.6,62.0,30.27,SE,125,0.0,0.0,90,0.00,,,0.00,weatherlink.com 1.10,2013-08-25 01:10:00,
2013-08-24 21:25:00,63.8,62.0,30.27,SE,126,0.0,0.0,92,0.00,,,0.00,weatherlink.com 1.10,2013-08-25 01:25:00,
2013-08-24 21:40:00,63.2,61.0,30.26,SE,125,0.0,0.0,91,0.00,,,0.00,weatherlink.com 1.10,2013-08-25 01:40:00,
2013-08-24 21:55:00,63.3,61.0,30.27,SE,125,0.0,1.0,91,0.00,,,0.00,weatherlink.com 1.10,2013-08-25 01:55:00,
2013-08-24 22:10:00,62.9,61.0,30.27,SE,125,0.0,0.0,92,0.00,,,0.00,weatherlink.com 1.10,2013-08-25 02:10:00,
2013-08-24 22:25:00,62.5,61.0,30.27,SE,125,0.0,0.0,93,0.00,,,0.00,weatherlink.com 1.10,2013-08-25 02:25:00,
2013-08-24 22:40:00,62.0,60.0,30.27,SE,125,0.0,0.0,93,0.00,,,0.00,weatherlink.com 1.10,2013-08-25 02:40:00,
2013-08-24 22:55:00,61.4,60.0,30.27,SE,125,0.0,0.0,94,0.00,,,0.00,weatherlink.com 1.10,2013-08-25 02:55:00,
2013-08-24 23:10:00,61.0,59.0,30.27,SE,125,0.0,0.0,94,0.00,,,0.00,weatherlink.com 1.10,2013-08-25 03:10:00,
2013-08-24 23:25:00,60.7,59.0,30.28,SE,125,0.0,0.0,95,0.00,,,0.00,weatherlink.com 1.10,2013-08-25 03:25:00,
2013-08-24 23:40:00,60.3,59.0,30.28,SE,125,0.0,0.0,95,0.00,,,0.00,weatherlink.com 1.10,2013-08-25 03:40:00,
2013-08-24 23:55:00,59.9,59.0,30.28,SE,125,0.0,0.0,96,0.00,,,0.00,weatherlink.com 1.10,2013-08-25 03:55:00,